Time,TemperatureF,DewpointF,PressureIn,WindDirection,WindDirectionDegrees,WindSpeedMPH,WindSpeedGustMPH,Humidity,HourlyPrecipIn,Conditions,Clouds,dailyrainin,SoftwareType,DateUTC
2013-02-17 00:12:00,29.8,19.5,29.46,ESE,112,3.7,-999.0,65,-99.99,,,0.00,Acu-Link.com,2013-02-17 05:12:00,
2013-02-17 00:27:00,29.5,19.2,29.45,West,270,1.7,-999.0,65,-99.99,,,0.00,Acu-Link.com,2013-02-17 05:27:00,
2013-02-17 00:42:00,29.3,19.0,29.44,SE,135,3.7,-999.0,65,-99.99,,,0.00,Acu-Link.com,2013-02-17 05:42:00,
2013-02-17 00:57:00,29.3,19.0,29.44,East,90,3.7,-999.0,65,-99.99,,,0.00,Acu-Link.com,2013-02-17 05:57:00,
2013-02-17 01:12:00,28.9,18.6,29.42,East,90,4.2,-999.0,65,-99.99,,,0.00,Acu-Link.com,2013-02-17 06:12:00,
2013-02-17 01:27:00,28.9,18.3,29.43,ESE,112,1.7,-999.0,64,-99.99,,,0.00,Acu-Link.com,2013-02-17 06:27:00,
2013-02-17 01:42:00,28.8,18.2,29.44,North,0,3.7,-999.0,64,-99.99,,,0.00,Acu-Link.com,2013-02-17 06:42:00,
2013-02-17 01:57:00,28.6,18.4,29.43,West,270,4.2,-999.0,65,-99.99,,,0.00,Acu-Link.com,2013-02-17 06:57:00,
2013-02-17 02:13:00,28.6,18.4,29.43,SSW,202,3.2,-999.0,65,-99.99,,,0.00,Acu-Link.com,2013-02-17 07:13:00,
2013-02-17 02:28:00,28.4,18.2,29.42,SSW,202,4.2,-999.0,65,-99.99,,,0.00,Acu-Link.com,2013-02-17 07:28:00,
2013-02-17 02:43:00,28.4,17.8,29.42,ESE,112,3.7,-999.0,64,-99.99,,,0.00,Acu-Link.com,2013-02-17 07:43:00,
2013-02-17 02:58:00,28.2,18.3,29.42,WSW,247,2.2,-999.0,66,-99.99,,,0.00,Acu-Link.com,2013-02-17 07:58:00,
2013-02-17 03:13:00,28.0,17.8,29.41,SE,135,2.7,-999.0,65,-99.99,,,0.00,Acu-Link.com,2013-02-17 08:13:00,
2013-02-17 03:28:00,27.9,18.0,29.42,South,180,2.2,-999.0,66,-99.99,,,0.00,Acu-Link.com,2013-02-17 08:28:00,
2013-02-17 03:43:00,27.9,18.0,29.41,NNE,22,4.2,-999.0,66,-99.99,,,0.00,Acu-Link.com,2013-02-17 08:43:00,
2013-02-17 03:58:00,27.7,18.2,29.41,NW,315,1.7,-999.0,67,-99.99,,,0.00,Acu-Link.com,2013-02-17 08:58:00,
2013-02-17 04:17:00,27.7,18.2,29.41,SSE,157,4.2,-999.0,67,-99.99,,,0.00,Acu-Link.com,2013-02-17 09:17:00,
2013-02-17 04:32:00,27.7,18.2,29.42,ESE,112,2.7,-999.0,67,-99.99,,,0.00,Acu-Link.com,2013-02-17 09:32:00,
2013-02-17 04:47:00,27.7,17.1,29.41,ESE,112,5.8,-999.0,64,-99.99,,,0.00,Acu-Link.com,2013-02-17 09:47:00,
2013-02-17 05:02:00,27.7,16.4,29.40,SSE,157,3.2,-999.0,62,-99.99,,,0.00,Acu-Link.com,2013-02-17 10:02:00,
2013-02-17 05:17:00,27.5,14.3,29.40,SE,135,3.7,-999.0,57,-99.99,,,0.00,Acu-Link.com,2013-02-17 10:17:00,
2013-02-17 05:32:00,27.3,13.7,29.41,ESE,112,4.2,-999.0,56,-99.99,,,0.00,Acu-Link.com,2013-02-17 10:32:00,
2013-02-17 05:48:00,27.1,13.1,29.40,ESE,112,4.2,-999.0,55,-99.99,,,0.00,Acu-Link.com,2013-02-17 10:48:00,
2013-02-17 06:03:00,27.0,13.0,29.39,WNW,292,2.7,-999.0,55,-99.99,,,0.00,Acu-Link.com,2013-02-17 11:03:00,
2013-02-17 06:18:00,27.0,12.6,29.39,NE,45,5.3,-999.0,54,-99.99,,,0.00,Acu-Link.com,2013-02-17 11:18:00,
2013-02-17 06:33:00,26.8,12.4,29.40,WSW,247,3.2,-999.0,54,-99.99,,,0.00,Acu-Link.com,2013-02-17 11:33:00,
2013-02-17 06:48:00,26.6,11.8,29.40,South,180,5.8,-999.0,53,-99.99,,,0.00,Acu-Link.com,2013-02-17 11:48:00,
2013-02-17 07:03:00,26.4,12.0,29.41,South,180,3.7,-999.0,54,-99.99,,,0.00,Acu-Link.com,2013-02-17 12:03:00,
2013-02-17 07:18:00,26.2,11.9,29.41,South,180,4.7,-999.0,54,-99.99,,,0.00,Acu-Link.com,2013-02-17 12:18:00,
2013-02-17 07:33:00,26.2,11.9,29.42,WSW,247,5.3,-999.0,54,-99.99,,,0.00,Acu-Link.com,2013-02-17 12:33:00,
2013-02-17 07:48:00,26.4,12.0,29.42,SE,135,2.2,-999.0,54,-99.99,,,0.00,Acu-Link.com,2013-02-17 12:48:00,
2013-02-17 08:03:00,26.6,11.8,29.41,ESE,112,3.7,-999.0,53,-99.99,,,0.00,Acu-Link.com,2013-02-17 13:03:00,
2013-02-17 08:19:00,27.0,11.3,29.42,NNE,22,3.7,-999.0,51,-99.99,,,0.00,Acu-Link.com,2013-02-17 13:19:00,
2013-02-17 08:34:00,27.5,11.8,29.42,NW,315,6.3,-999.0,51,-99.99,,,0.00,Acu-Link.com,2013-02-17 13:34:00,
2013-02-17 08:49:00,28.4,12.6,29.41,South,180,7.8,-999.0,51,-99.99,,,0.00,Acu-Link.com,2013-02-17 13:49:00,
2013-02-17 09:04:00,28.6,12.8,29.40,WNW,292,2.7,-999.0,51,-99.99,,,0.00,Acu-Link.com,2013-02-17 14:04:00,
2013-02-17 09:19:00,29.8,13.9,29.41,SSE,157,2.2,-999.0,51,-99.99,,,0.00,Acu-Link.com,2013-02-17 14:19:00,
2013-02-17 09:34:00,29.7,12.9,29.41,West,270,3.2,-999.0,49,-99.99,,,0.00,Acu-Link.com,2013-02-17 14:34:00,
2013-02-17 09:49:00,29.8,12.5,29.42,ESE,112,4.2,-999.0,48,-99.99,,,0.00,Acu-Link.com,2013-02-17 14:49:00,
2013-02-17 10:04:00,29.8,12.5,29.42,South,180,2.7,-999.0,48,-99.99,,,0.00,Acu-Link.com,2013-02-17 15:04:00,
2013-02-17 10:19:00,29.7,12.4,29.42,ESE,112,6.8,-999.0,48,-99.99,,,0.00,Acu-Link.com,2013-02-17 15:19:00,
2013-02-17 10:35:00,31.3,14.4,29.42,SW,225,5.3,-999.0,49,-99.99,,,0.00,Acu-Link.com,2013-02-17 15:35:00,
2013-02-17 10:50:00,30.6,12.8,29.43,WNW,292,5.3,-999.0,47,-99.99,,,0.00,Acu-Link.com,2013-02-17 15:50:00,
2013-02-17 11:05:00,31.3,13.9,29.44,ESE,112,3.2,-999.0,48,-99.99,,,0.00,Acu-Link.com,2013-02-17 16:05:00,
2013-02-17 11:20:00,31.8,14.4,29.44,ENE,67,6.8,-999.0,48,-99.99,,,0.00,Acu-Link.com,2013-02-17 16:20:00,
2013-02-17 11:35:00,32.4,14.4,29.44,ESE,112,6.8,-999.0,47,-99.99,,,0.00,Acu-Link.com,2013-02-17 16:35:00,
2013-02-17 11:50:00,33.1,16.0,29.44,ESE,112,5.8,-999.0,49,-99.99,,,0.00,Acu-Link.com,2013-02-17 16:50:00,
2013-02-17 12:05:00,32.5,14.5,29.43,SW,225,5.3,-999.0,47,-99.99,,,0.00,Acu-Link.com,2013-02-17 17:05:00,
2013-02-17 12:20:00,33.1,15.1,29.43,WNW,292,2.7,-999.0,47,-99.99,,,0.00,Acu-Link.com,2013-02-17 17:20:00,
2013-02-17 12:35:00,32.5,14.5,29.43,ESE,112,8.3,-999.0,47,-99.99,,,0.00,Acu-Link.com,2013-02-17 17:35:00,
2013-02-17 12:51:00,32.9,15.4,29.43,SSE,157,1.7,-999.0,48,-99.99,,,0.00,Acu-Link.com,2013-02-17 17:51:00,
2013-02-17 13:06:00,32.5,14.5,29.44,ESE,112,6.8,-999.0,47,-99.99,,,0.00,Acu-Link.com,2013-02-17 18:06:00,
2013-02-17 13:21:00,33.1,14.1,29.45,South,180,4.2,-999.0,45,-99.99,,,0.00,Acu-Link.com,2013-02-17 18:21:00,
2013-02-17 13:36:00,30.7,12.9,29.45,ESE,112,2.7,-999.0,47,-99.99,,,0.00,Acu-Link.com,2013-02-17 18:36:00,
2013-02-17 13:51:00,29.7,12.4,29.45,East,90,3.7,-999.0,48,-99.99,,,0.00,Acu-Link.com,2013-02-17 18:51:00,
2013-02-17 14:06:00,31.1,12.8,29.47,East,90,8.9,-999.0,46,-99.99,,,0.00,Acu-Link.com,2013-02-17 19:06:00,
2013-02-17 14:22:00,31.3,12.5,29.46,SSW,202,5.8,-999.0,45,-99.99,,,0.00,Acu-Link.com,2013-02-17 19:22:00,
2013-02-17 14:37:00,29.8,12.1,29.47,South,180,3.7,-999.0,47,-99.99,,,0.00,Acu-Link.com,2013-02-17 19:37:00,
2013-02-17 14:52:00,30.4,12.6,29.48,NNE,22,4.2,-999.0,47,-99.99,,,0.00,Acu-Link.com,2013-02-17 19:52:00,
2013-02-17 15:07:00,29.5,11.3,29.48,North,0,3.2,-999.0,46,-99.99,,,0.00,Acu-Link.com,2013-02-17 20:07:00,
2013-02-17 15:22:00,29.3,12.1,29.49,NNE,22,6.8,-999.0,48,-99.99,,,0.00,Acu-Link.com,2013-02-17 20:22:00,
2013-02-17 15:37:00,29.3,12.1,29.49,NE,45,6.3,-999.0,48,-99.99,,,0.00,Acu-Link.com,2013-02-17 20:37:00,
2013-02-17 15:52:00,29.7,12.9,29.49,SSE,157,3.2,-999.0,49,-99.99,,,0.00,Acu-Link.com,2013-02-17 20:52:00,
2013-02-17 16:07:00,29.1,15.0,29.50,ESE,112,3.7,-999.0,55,-99.99,,,0.00,Acu-Link.com,2013-02-17 21:07:00,
2013-02-17 16:22:00,28.8,13.9,29.51,NW,315,5.8,-999.0,53,-99.99,,,0.00,Acu-Link.com,2013-02-17 21:22:00,
2013-02-17 16:38:00,27.5,15.1,29.50,NNW,337,4.7,-999.0,59,-99.99,,,0.00,Acu-Link.com,2013-02-17 21:38:00,
2013-02-17 16:53:00,26.2,14.6,29.52,NNW,337,5.3,-999.0,61,-99.99,,,0.00,Acu-Link.com,2013-02-17 21:53:00,
2013-02-17 17:08:00,25.9,14.3,29.53,West,270,2.7,-999.0,61,-99.99,,,0.00,Acu-Link.com,2013-02-17 22:08:00,
2013-02-17 17:23:00,25.5,14.3,29.53,SSW,202,4.2,-999.0,62,-99.99,,,0.00,Acu-Link.com,2013-02-17 22:23:00,
2013-02-17 17:38:00,24.4,15.4,29.55,NE,45,4.2,-999.0,68,-99.99,,,0.00,Acu-Link.com,2013-02-17 22:38:00,
2013-02-17 17:53:00,25.0,15.6,29.55,West,270,4.2,-999.0,67,-99.99,,,0.00,Acu-Link.com,2013-02-17 22:53:00,
2013-02-17 18:08:00,24.6,13.8,29.56,SW,225,7.3,-999.0,63,-99.99,,,0.00,Acu-Link.com,2013-02-17 23:08:00,
2013-02-17 18:23:00,23.9,11.7,29.57,SSW,202,8.3,-999.0,59,-99.99,,,0.00,Acu-Link.com,2013-02-17 23:23:00,
2013-02-17 18:38:00,23.4,11.2,29.59,SW,225,2.2,-999.0,59,-99.99,,,0.00,Acu-Link.com,2013-02-17 23:38:00,
2013-02-17 18:54:00,23.0,11.2,29.59,SSW,202,2.7,-999.0,60,-99.99,,,0.00,Acu-Link.com,2013-02-17 23:54:00,
2013-02-17 19:09:00,22.5,11.5,29.60,WNW,292,3.2,-999.0,62,-99.99,,,0.00,Acu-Link.com,2013-02-18 00:09:00,
2013-02-17 19:24:00,22.1,11.1,29.61,South,180,5.8,-999.0,62,-99.99,,,0.00,Acu-Link.com,2013-02-18 00:24:00,
2013-02-17 19:39:00,22.1,10.4,29.62,ENE,67,8.3,-999.0,60,-99.99,,,0.00,Acu-Link.com,2013-02-18 00:39:00,
2013-02-17 19:54:00,22.1,8.4,29.64,North,0,3.7,-999.0,55,-99.99,,,0.00,Acu-Link.com,2013-02-18 00:54:00,
2013-02-17 20:09:00,21.6,8.0,29.64,SSW,202,2.7,-999.0,55,-99.99,,,0.00,Acu-Link.com,2013-02-18 01:09:00,
2013-02-17 20:24:00,21.4,8.2,29.65,SSE,157,4.7,-999.0,56,-99.99,,,0.00,Acu-Link.com,2013-02-18 01:24:00,
2013-02-17 20:39:00,20.8,7.6,29.66,NNW,337,2.7,-999.0,56,-99.99,,,0.00,Acu-Link.com,2013-02-18 01:39:00,
2013-02-17 20:54:00,20.3,6.7,29.67,ESE,112,3.7,-999.0,55,-99.99,,,0.00,Acu-Link.com,2013-02-18 01:54:00,
2013-02-17 21:10:00,19.9,6.8,29.67,NNE,22,3.2,-999.0,56,-99.99,,,0.00,Acu-Link.com,2013-02-18 02:10:00,
2013-02-17 21:25:00,19.4,6.3,29.68,SSW,202,4.2,-999.0,56,-99.99,,,0.00,Acu-Link.com,2013-02-18 02:25:00,
2013-02-17 21:40:00,18.9,6.2,29.69,ESE,112,6.3,-999.0,57,-99.99,,,0.00,Acu-Link.com,2013-02-18 02:40:00,
2013-02-17 21:55:00,18.5,6.6,29.70,ESE,112,4.2,-999.0,59,-99.99,,,0.00,Acu-Link.com,2013-02-18 02:55:00,
2013-02-17 22:10:00,18.0,6.1,29.71,South,180,1.7,-999.0,59,-99.99,,,0.00,Acu-Link.com,2013-02-18 03:10:00,
2013-02-17 22:25:00,17.6,6.5,29.72,SW,225,3.2,-999.0,61,-99.99,,,0.00,Acu-Link.com,2013-02-18 03:25:00,
2013-02-17 22:40:00,17.6,6.5,29.73,SE,135,2.2,-999.0,61,-99.99,,,0.00,Acu-Link.com,2013-02-18 03:40:00,
2013-02-17 22:55:00,17.4,5.6,29.73,NE,45,0.0,-999.0,59,-99.99,,,0.00,Acu-Link.com,2013-02-18 03:55:00,
2013-02-17 23:10:00,17.2,5.7,29.74,SSE,157,2.2,-999.0,60,-99.99,,,0.00,Acu-Link.com,2013-02-18 04:10:00,
2013-02-17 23:26:00,17.1,6.0,29.73,South,180,1.7,-999.0,61,-99.99,,,0.00,Acu-Link.com,2013-02-18 04:26:00,
2013-02-17 23:41:00,17.1,6.4,29.74,SW,225,2.7,-999.0,62,-99.99,,,0.00,Acu-Link.com,2013-02-18 04:41:00,
2013-02-17 23:56:00,17.4,6.6,29.74,ESE,112,4.7,-999.0,62,-99.99,,,0.00,Acu-Link.com,2013-02-18 04:56:00,